sensor_id;sensor_type;location;lat;lon;timestamp;pressure;altitude;pressure_sealevel;temperature;humidity
20630;BME280;17386;43.846;25.950;2023-04-01T00:02:03;100325.84;;;13.58;77.01
20630;BME280;17386;43.846;25.950;2023-04-01T00:04:28;100325.25;;;13.53;77.02
20630;BME280;17386;43.846;25.950;2023-04-01T00:06:53;100311.28;;;13.48;77.31
20630;BME280;17386;43.846;25.950;2023-04-01T00:09:19;100308.84;;;13.43;78.10
20630;BME280;17386;43.846;25.950;2023-04-01T00:11:44;100308.41;;;13.35;78.34
20630;BME280;17386;43.846;25.950;2023-04-01T00:14:11;100305.84;;;13.33;78.64
20630;BME280;17386;43.846;25.950;2023-04-01T00:16:36;100287.50;;;13.27;80.04
20630;BME280;17386;43.846;25.950;2023-04-01T00:19:02;100302.56;;;13.11;81.98
20630;BME280;17386;43.846;25.950;2023-04-01T00:21:27;100298.97;;;12.95;85.63
20630;BME280;17386;43.846;25.950;2023-04-01T00:23:53;100292.09;;;12.73;87.50
20630;BME280;17386;43.846;25.950;2023-04-01T00:26:19;100292.09;;;12.73;87.65
20630;BME280;17386;43.846;25.950;2023-04-01T00:28:46;100282.78;;;12.65;88.61
20630;BME280;17386;43.846;25.950;2023-04-01T00:31:14;100280.94;;;12.48;89.74
20630;BME280;17386;43.846;25.950;2023-04-01T00:33:41;100258.53;;;12.17;91.53
20630;BME280;17386;43.846;25.950;2023-04-01T00:36:11;100286.63;;;12.05;92.94
20630;BME280;17386;43.846;25.950;2023-04-01T00:38:38;100282.53;;;11.98;93.46
20630;BME280;17386;43.846;25.950;2023-04-01T00:41:05;100271.19;;;11.95;93.53
20630;BME280;17386;43.846;25.950;2023-04-01T00:43:31;100280.81;;;11.97;92.95
20630;BME280;17386;43.846;25.950;2023-04-01T00:45:57;100265.31;;;11.88;93.15
20630;BME280;17386;43.846;25.950;2023-04-01T00:48:26;100256.84;;;11.97;92.97
20630;BME280;17386;43.846;25.950;2023-04-01T00:51:01;100253.56;;;11.92;93.14
20630;BME280;17386;43.846;25.950;2023-04-01T00:53:28;100251.44;;;11.82;93.68
20630;BME280;17386;43.846;25.950;2023-04-01T00:55:59;100240.97;;;11.77;94.22
20630;BME280;17386;43.846;25.950;2023-04-01T00:58:27;100243.72;;;11.75;94.46
20630;BME280;17386;43.846;25.950;2023-04-01T01:00:55;100242.13;;;11.71;94.57
20630;BME280;17386;43.846;25.950;2023-04-01T01:03:21;100241.56;;;11.65;95.18
20630;BME280;17386;43.846;25.950;2023-04-01T01:08:44;100236.59;;;11.57;95.57
20630;BME280;17386;43.846;25.950;2023-04-01T01:11:15;100226.91;;;11.56;96.02
20630;BME280;17386;43.846;25.950;2023-04-01T01:16:58;100223.75;;;11.29;99.61
20630;BME280;17386;43.846;25.950;2023-04-01T01:22:52;100234.25;;;11.13;100.00
20630;BME280;17386;43.846;25.950;2023-04-01T01:33:54;100214.53;;;10.99;100.00
20630;BME280;17386;43.846;25.950;2023-04-01T01:36:27;100208.22;;;11.01;100.00
20630;BME280;17386;43.846;25.950;2023-04-01T01:38:54;100203.91;;;10.99;100.00
20630;BME280;17386;43.846;25.950;2023-04-01T01:41:22;100201.88;;;11.04;100.00
20630;BME280;17386;43.846;25.950;2023-04-01T01:43:50;100194.78;;;11.04;100.00
20630;BME280;17386;43.846;25.950;2023-04-01T01:46:19;100191.53;;;10.98;100.00
20630;BME280;17386;43.846;25.950;2023-04-01T01:48:47;100185.44;;;10.95;100.00
20630;BME280;17386;43.846;25.950;2023-04-01T01:51:13;100188.78;;;10.80;100.00
20630;BME280;17386;43.846;25.950;2023-04-01T01:53:38;100189.50;;;10.84;100.00
20630;BME280;17386;43.846;25.950;2023-04-01T01:56:04;100182.19;;;10.89;100.00
20630;BME280;17386;43.846;25.950;2023-04-01T01:58:33;100175.94;;;10.90;100.00
20630;BME280;17386;43.846;25.950;2023-04-01T02:01:07;100173.28;;;10.90;100.00
20630;BME280;17386;43.846;25.950;2023-04-01T02:03:36;100173.50;;;10.85;100.00
20630;BME280;17386;43.846;25.950;2023-04-01T02:06:05;100167.16;;;10.69;100.00
20630;BME280;17386;43.846;25.950;2023-04-01T02:08:36;100157.09;;;10.57;100.00
20630;BME280;17386;43.846;25.950;2023-04-01T02:11:07;100156.72;;;10.46;100.00
20630;BME280;17386;43.846;25.950;2023-04-01T02:13:38;100154.66;;;10.32;100.00
20630;BME280;17386;43.846;25.950;2023-04-01T02:16:13;100155.88;;;10.25;100.00
20630;BME280;17386;43.846;25.950;2023-04-01T02:18:42;100151.66;;;10.19;100.00
20630;BME280;17386;43.846;25.950;2023-04-01T02:21:09;100155.31;;;10.17;100.00
20630;BME280;17386;43.846;25.950;2023-04-01T02:23:36;100147.13;;;10.01;100.00
20630;BME280;17386;43.846;25.950;2023-04-01T02:26:06;100154.75;;;10.08;100.00
20630;BME280;17386;43.846;25.950;2023-04-01T02:28:34;100152.44;;;10.21;100.00
20630;BME280;17386;43.846;25.950;2023-04-01T02:31:02;100150.56;;;10.25;100.00
20630;BME280;17386;43.846;25.950;2023-04-01T02:33:30;100149.84;;;10.20;100.00
20630;BME280;17386;43.846;25.950;2023-04-01T02:35:56;100142.69;;;10.22;100.00
20630;BME280;17386;43.846;25.950;2023-04-01T02:38:22;100131.81;;;10.28;100.00
20630;BME280;17386;43.846;25.950;2023-04-01T02:40:51;100135.34;;;10.28;100.00
20630;BME280;17386;43.846;25.950;2023-04-01T02:43:17;100139.44;;;10.35;100.00
20630;BME280;17386;43.846;25.950;2023-04-01T02:45:44;100128.88;;;10.13;100.00
20630;BME280;17386;43.846;25.950;2023-04-01T02:48:09;100116.13;;;10.22;100.00
20630;BME280;17386;43.846;25.950;2023-04-01T02:50:35;100120.50;;;10.24;100.00
20630;BME280;17386;43.846;25.950;2023-04-01T02:53:01;100118.94;;;10.19;100.00
20630;BME280;17386;43.846;25.950;2023-04-01T02:55:28;100123.22;;;10.23;100.00
20630;BME280;17386;43.846;25.950;2023-04-01T02:57:55;100121.34;;;10.25;100.00
20630;BME280;17386;43.846;25.950;2023-04-01T03:00:20;100115.19;;;10.24;100.00
20630;BME280;17386;43.846;25.950;2023-04-01T03:02:46;100116.28;;;10.19;100.00
20630;BME280;17386;43.846;25.950;2023-04-01T03:05:11;100120.22;;;10.30;100.00
20630;BME280;17386;43.846;25.950;2023-04-01T03:07:38;100103.72;;;10.24;100.00
20630;BME280;17386;43.846;25.950;2023-04-01T03:10:04;100111.53;;;10.27;100.00
20630;BME280;17386;43.846;25.950;2023-04-01T03:12:29;100105.34;;;10.26;100.00
20630;BME280;17386;43.846;25.950;2023-04-01T03:14:55;100105.44;;;10.25;100.00
20630;BME280;17386;43.846;25.950;2023-04-01T03:17:20;100118.47;;;10.09;100.00
20630;BME280;17386;43.846;25.950;2023-04-01T03:19:45;100116.03;;;10.04;100.00
20630;BME280;17386;43.846;25.950;2023-04-01T03:22:11;100112.25;;;10.10;100.00
20630;BME280;17386;43.846;25.950;2023-04-01T03:24:36;100112.97;;;10.13;100.00
20630;BME280;17386;43.846;25.950;2023-04-01T03:27:02;100117.94;;;10.01;100.00
20630;BME280;17386;43.846;25.950;2023-04-01T03:29:28;100117.00;;;10.02;100.00
20630;BME280;17386;43.846;25.950;2023-04-01T03:31:53;100111.69;;;10.02;100.00
20630;BME280;17386;43.846;25.950;2023-04-01T03:34:18;100119.66;;;10.02;100.00
20630;BME280;17386;43.846;25.950;2023-04-01T03:36:44;100116.88;;;10.05;100.00
20630;BME280;17386;43.846;25.950;2023-04-01T03:39:09;100107.31;;;10.01;100.00
20630;BME280;17386;43.846;25.950;2023-04-01T03:41:38;100115.25;;;10.02;100.00
20630;BME280;17386;43.846;25.950;2023-04-01T03:44:04;100114.34;;;10.02;100.00
20630;BME280;17386;43.846;25.950;2023-04-01T03:46:29;100107.06;;;10.07;100.00
20630;BME280;17386;43.846;25.950;2023-04-01T03:48:55;100099.84;;;10.10;100.00
20630;BME280;17386;43.846;25.950;2023-04-01T03:51:20;100105.78;;;10.15;100.00
20630;BME280;17386;43.846;25.950;2023-04-01T03:53:45;100106.53;;;10.19;100.00
20630;BME280;17386;43.846;25.950;2023-04-01T03:56:11;100106.38;;;10.24;100.00
20630;BME280;17386;43.846;25.950;2023-04-01T03:58:37;100108.66;;;10.11;100.00
20630;BME280;17386;43.846;25.950;2023-04-01T04:01:19;100108.31;;;10.19;100.00
20630;BME280;17386;43.846;25.950;2023-04-01T04:03:46;100095.81;;;10.21;100.00
20630;BME280;17386;43.846;25.950;2023-04-01T04:06:13;100100.28;;;10.20;100.00
20630;BME280;17386;43.846;25.950;2023-04-01T04:08:39;100089.56;;;10.23;100.00
20630;BME280;17386;43.846;25.950;2023-04-01T04:11:05;100087.50;;;10.30;100.00
20630;BME280;17386;43.846;25.950;2023-04-01T04:13:30;100086.78;;;10.26;100.00
20630;BME280;17386;43.846;25.950;2023-04-01T04:15:56;100076.31;;;10.22;100.00
20630;BME280;17386;43.846;25.950;2023-04-01T04:18:21;100072.44;;;10.30;100.00
20630;BME280;17386;43.846;25.950;2023-04-01T04:20:47;100083.69;;;10.35;100.00
20630;BME280;17386;43.846;25.950;2023-04-01T04:23:15;100072.59;;;10.46;100.00
20630;BME280;17386;43.846;25.950;2023-04-01T04:25:41;100067.44;;;10.43;100.00
20630;BME280;17386;43.846;25.950;2023-04-01T04:28:06;100070.44;;;10.54;100.00
20630;BME280;17386;43.846;25.950;2023-04-01T04:30:32;100073.56;;;10.64;100.00
20630;BME280;17386;43.846;25.950;2023-04-01T04:32:57;100091.41;;;10.60;100.00
20630;BME280;17386;43.846;25.950;2023-04-01T04:35:22;100088.25;;;10.52;100.00
20630;BME280;17386;43.846;25.950;2023-04-01T04:37:48;100080.63;;;10.63;100.00
20630;BME280;17386;43.846;25.950;2023-04-01T04:40:13;100083.47;;;10.79;100.00
20630;BME280;17386;43.846;25.950;2023-04-01T04:42:38;100084.72;;;10.89;100.00
20630;BME280;17386;43.846;25.950;2023-04-01T04:45:04;100082.53;;;10.99;100.00
20630;BME280;17386;43.846;25.950;2023-04-01T04:47:30;100077.59;;;11.09;100.00
20630;BME280;17386;43.846;25.950;2023-04-01T04:49:56;100082.34;;;11.21;100.00
20630;BME280;17386;43.846;25.950;2023-04-01T04:52:21;100073.03;;;11.30;99.52
20630;BME280;17386;43.846;25.950;2023-04-01T04:54:47;100073.13;;;11.45;97.55
20630;BME280;17386;43.846;25.950;2023-04-01T04:57:12;100063.38;;;11.63;96.18
20630;BME280;17386;43.846;25.950;2023-04-01T04:59:37;100067.81;;;11.82;94.45
20630;BME280;17386;43.846;25.950;2023-04-01T05:02:03;100074.13;;;11.96;93.61
20630;BME280;17386;43.846;25.950;2023-04-01T05:04:28;100065.75;;;12.04;92.35
20630;BME280;17386;43.846;25.950;2023-04-01T05:06:54;100072.91;;;12.19;91.65
20630;BME280;17386;43.846;25.950;2023-04-01T05:09:19;100067.91;;;12.30;90.43
20630;BME280;17386;43.846;25.950;2023-04-01T05:11:45;100064.63;;;12.41;89.84
20630;BME280;17386;43.846;25.950;2023-04-01T05:14:15;100064.50;;;12.44;89.41
20630;BME280;17386;43.846;25.950;2023-04-01T05:16:41;100058.50;;;12.56;88.63
20630;BME280;17386;43.846;25.950;2023-04-01T05:19:06;100061.31;;;12.69;88.01
20630;BME280;17386;43.846;25.950;2023-04-01T05:21:32;100059.97;;;12.78;87.25
20630;BME280;17386;43.846;25.950;2023-04-01T05:23:57;100056.78;;;12.87;86.61
20630;BME280;17386;43.846;25.950;2023-04-01T05:26:23;100064.53;;;12.92;86.31
20630;BME280;17386;43.846;25.950;2023-04-01T05:28:48;100064.34;;;12.95;85.67
20630;BME280;17386;43.846;25.950;2023-04-01T05:31:13;100063.16;;;13.00;85.51
20630;BME280;17386;43.846;25.950;2023-04-01T05:33:39;100070.63;;;13.09;85.63
20630;BME280;17386;43.846;25.950;2023-04-01T05:36:08;100063.78;;;13.21;84.99
20630;BME280;17386;43.846;25.950;2023-04-01T05:38:34;100060.75;;;13.27;84.61
20630;BME280;17386;43.846;25.950;2023-04-01T05:41:01;100062.78;;;13.38;83.78
20630;BME280;17386;43.846;25.950;2023-04-01T05:43:27;100064.34;;;13.42;83.79
20630;BME280;17386;43.846;25.950;2023-04-01T05:45:53;100055.22;;;13.46;83.88
20630;BME280;17386;43.846;25.950;2023-04-01T05:48:18;100057.34;;;13.55;84.19
20630;BME280;17386;43.846;25.950;2023-04-01T05:50:43;100058.16;;;13.72;82.59
20630;BME280;17386;43.846;25.950;2023-04-01T05:53:09;100054.50;;;13.88;81.64
20630;BME280;17386;43.846;25.950;2023-04-01T05:55:35;100038.28;;;14.06;80.89
20630;BME280;17386;43.846;25.950;2023-04-01T05:58:01;100030.88;;;14.25;80.02
20630;BME280;17386;43.846;25.950;2023-04-01T06:00:27;100035.06;;;14.43;79.54
20630;BME280;17386;43.846;25.950;2023-04-01T06:02:52;100037.56;;;14.61;78.82
20630;BME280;17386;43.846;25.950;2023-04-01T06:05:22;100024.09;;;14.76;77.57
20630;BME280;17386;43.846;25.950;2023-04-01T06:07:51;100027.75;;;14.88;77.23
20630;BME280;17386;43.846;25.950;2023-04-01T06:10:21;100026.84;;;14.89;77.18
20630;BME280;17386;43.846;25.950;2023-04-01T06:13:06;100034.13;;;15.00;77.21
20630;BME280;17386;43.846;25.950;2023-04-01T06:27:07;100037.81;;;14.85;77.50
20630;BME280;17386;43.846;25.950;2023-04-01T06:38:17;100040.09;;;14.34;81.24
20630;BME280;17386;43.846;25.950;2023-04-01T06:46:26;100040.31;;;14.31;82.73
20630;BME280;17386;43.846;25.950;2023-04-01T06:49:28;100035.34;;;14.24;83.44
20630;BME280;17386;43.846;25.950;2023-04-01T06:52:06;100032.88;;;14.21;83.67
20630;BME280;17386;43.846;25.950;2023-04-01T06:54:38;100034.00;;;14.03;84.29
20630;BME280;17386;43.846;25.950;2023-04-01T06:57:20;100034.09;;;14.02;84.79
20630;BME280;17386;43.846;25.950;2023-04-01T06:59:48;100027.59;;;14.06;84.99
20630;BME280;17386;43.846;25.950;2023-04-01T07:02:34;100038.47;;;14.03;85.76
20630;BME280;17386;43.846;25.950;2023-04-01T07:05:04;100033.16;;;14.03;86.11
20630;BME280;17386;43.846;25.950;2023-04-01T07:07:39;100018.63;;;13.92;86.52
20630;BME280;17386;43.846;25.950;2023-04-01T07:10:58;100038.66;;;14.00;87.39
20630;BME280;17386;43.846;25.950;2023-04-01T07:13:29;100043.97;;;13.85;88.29
20630;BME280;17386;43.846;25.950;2023-04-01T07:18:52;100035.94;;;13.71;88.81
20630;BME280;17386;43.846;25.950;2023-04-01T07:21:28;100041.38;;;13.69;89.62
20630;BME280;17386;43.846;25.950;2023-04-01T07:23:59;100046.47;;;13.88;89.84
20630;BME280;17386;43.846;25.950;2023-04-01T07:26:26;100046.38;;;13.90;88.95
20630;BME280;17386;43.846;25.950;2023-04-01T07:28:52;100048.31;;;14.02;88.92
20630;BME280;17386;43.846;25.950;2023-04-01T07:34:28;100047.22;;;14.49;87.76
20630;BME280;17386;43.846;25.950;2023-04-01T07:37:09;100046.44;;;14.61;86.43
20630;BME280;17386;43.846;25.950;2023-04-01T07:39:58;100050.72;;;14.78;86.27
20630;BME280;17386;43.846;25.950;2023-04-01T07:42:48;100048.41;;;14.86;86.72
20630;BME280;17386;43.846;25.950;2023-04-01T07:45:34;100046.31;;;14.91;87.72
20630;BME280;17386;43.846;25.950;2023-04-01T07:48:29;100052.94;;;15.13;87.79
20630;BME280;17386;43.846;25.950;2023-04-01T07:51:29;100040.19;;;14.75;88.77
20630;BME280;17386;43.846;25.950;2023-04-01T08:02:24;100010.34;;;15.49;83.59
20630;BME280;17386;43.846;25.950;2023-04-01T08:16:06;100017.53;;;16.14;78.06
20630;BME280;17386;43.846;25.950;2023-04-01T08:21:25;100012.16;;;16.27;77.80
20630;BME280;17386;43.846;25.950;2023-04-01T08:23:56;100011.78;;;16.44;76.03
20630;BME280;17386;43.846;25.950;2023-04-01T08:26:39;100021.09;;;16.51;74.47
20630;BME280;17386;43.846;25.950;2023-04-01T08:29:19;100008.84;;;16.60;73.33
20630;BME280;17386;43.846;25.950;2023-04-01T08:31:59;99998.25;;;16.71;73.31
20630;BME280;17386;43.846;25.950;2023-04-01T08:34:35;100010.41;;;16.88;71.47
20630;BME280;17386;43.846;25.950;2023-04-01T08:37:14;100014.06;;;16.87;70.75
20630;BME280;17386;43.846;25.950;2023-04-01T08:40:02;100022.94;;;16.76;71.09
20630;BME280;17386;43.846;25.950;2023-04-01T08:42:42;100018.28;;;16.78;69.78
20630;BME280;17386;43.846;25.950;2023-04-01T08:54:19;100006.56;;;16.42;71.08
20630;BME280;17386;43.846;25.950;2023-04-01T09:05:47;100001.88;;;17.07;68.93
20630;BME280;17386;43.846;25.950;2023-04-01T09:20:00;99998.16;;;17.20;70.09
20630;BME280;17386;43.846;25.950;2023-04-01T09:25:48;99990.38;;;17.53;69.57
20630;BME280;17386;43.846;25.950;2023-04-01T09:28:20;100004.19;;;17.70;68.78
20630;BME280;17386;43.846;25.950;2023-04-01T09:30:57;100006.09;;;17.81;68.65
20630;BME280;17386;43.846;25.950;2023-04-01T09:36:46;100010.13;;;17.75;68.67
20630;BME280;17386;43.846;25.950;2023-04-01T09:39:23;100003.28;;;17.83;68.46
20630;BME280;17386;43.846;25.950;2023-04-01T09:42:21;99994.75;;;17.77;69.64
20630;BME280;17386;43.846;25.950;2023-04-01T09:45:00;99980.28;;;17.67;71.65
20630;BME280;17386;43.846;25.950;2023-04-01T09:47:51;99986.81;;;17.87;72.07
20630;BME280;17386;43.846;25.950;2023-04-01T09:53:45;99972.91;;;18.49;67.80
20630;BME280;17386;43.846;25.950;2023-04-01T10:14:08;99964.72;;;19.17;66.38
20630;BME280;17386;43.846;25.950;2023-04-01T10:27:19;99935.41;;;20.77;61.36
20630;BME280;17386;43.846;25.950;2023-04-01T10:32:50;99937.28;;;21.25;55.79
20630;BME280;17386;43.846;25.950;2023-04-01T10:38:41;99939.69;;;20.90;55.92
20630;BME280;17386;43.846;25.950;2023-04-01T10:44:17;99944.22;;;19.78;56.82
20630;BME280;17386;43.846;25.950;2023-04-01T10:46:58;99934.88;;;19.82;58.09
20630;BME280;17386;43.846;25.950;2023-04-01T10:49:41;99934.63;;;19.64;57.96
20630;BME280;17386;43.846;25.950;2023-04-01T10:58:17;99921.16;;;18.79;61.93
20630;BME280;17386;43.846;25.950;2023-04-01T11:09:38;99903.78;;;18.83;63.14
20630;BME280;17386;43.846;25.950;2023-04-01T11:12:36;99897.00;;;18.46;63.56
20630;BME280;17386;43.846;25.950;2023-04-01T11:23:16;99886.81;;;18.06;67.34
20630;BME280;17386;43.846;25.950;2023-04-01T11:26:09;99882.53;;;17.92;67.77
20630;BME280;17386;43.846;25.950;2023-04-01T11:42:54;99856.75;;;18.12;69.68
20630;BME280;17386;43.846;25.950;2023-04-01T11:45:48;99864.78;;;18.35;69.00
20630;BME280;17386;43.846;25.950;2023-04-01T11:54:01;99854.94;;;18.67;68.16
20630;BME280;17386;43.846;25.950;2023-04-01T12:15:56;99832.69;;;20.00;63.82
20630;BME280;17386;43.846;25.950;2023-04-01T12:21:29;99826.66;;;20.37;61.85
20630;BME280;17386;43.846;25.950;2023-04-01T12:24:15;99818.56;;;20.37;62.56
20630;BME280;17386;43.846;25.950;2023-04-01T12:45:38;99826.53;;;19.88;63.34
20630;BME280;17386;43.846;25.950;2023-04-01T12:48:27;99829.50;;;19.85;63.49
20630;BME280;17386;43.846;25.950;2023-04-01T12:51:14;99822.19;;;19.66;63.95
20630;BME280;17386;43.846;25.950;2023-04-01T12:56:56;99817.31;;;19.30;65.41
20630;BME280;17386;43.846;25.950;2023-04-01T13:05:09;99835.69;;;19.25;66.21
20630;BME280;17386;43.846;25.950;2023-04-01T13:10:38;99836.00;;;19.10;66.75
20630;BME280;17386;43.846;25.950;2023-04-01T13:19:09;99833.97;;;18.82;68.25
20630;BME280;17386;43.846;25.950;2023-04-01T13:21:49;99830.31;;;18.72;68.65
20630;BME280;17386;43.846;25.950;2023-04-01T13:24:36;99822.78;;;18.54;69.78
20630;BME280;17386;43.846;25.950;2023-04-01T13:27:18;99830.50;;;18.48;70.40
20630;BME280;17386;43.846;25.950;2023-04-01T13:38:31;99831.44;;;18.58;70.84
20630;BME280;17386;43.846;25.950;2023-04-01T13:44:11;99816.03;;;18.28;72.00
20630;BME280;17386;43.846;25.950;2023-04-01T13:52:34;99812.78;;;18.13;72.33
20630;BME280;17386;43.846;25.950;2023-04-01T13:55:20;99812.06;;;18.00;73.37
20630;BME280;17386;43.846;25.950;2023-04-01T13:58:07;99805.59;;;17.91;75.97
20630;BME280;17386;43.846;25.950;2023-04-01T14:09:00;99821.31;;;17.51;78.80
20630;BME280;17386;43.846;25.950;2023-04-01T14:12:19;99819.84;;;17.47;79.53
20630;BME280;17386;43.846;25.950;2023-04-01T14:17:50;99818.28;;;17.44;81.91
20630;BME280;17386;43.846;25.950;2023-04-01T14:23:06;99815.06;;;17.28;85.26
20630;BME280;17386;43.846;25.950;2023-04-01T14:31:44;99793.06;;;17.01;88.25
20630;BME280;17386;43.846;25.950;2023-04-01T14:40:27;99765.72;;;16.60;89.80
20630;BME280;17386;43.846;25.950;2023-04-01T14:51:18;99758.31;;;16.40;90.91
20630;BME280;17386;43.846;25.950;2023-04-01T14:54:14;99777.34;;;16.37;90.82
20630;BME280;17386;43.846;25.950;2023-04-01T14:56:50;99772.94;;;16.36;91.58
20630;BME280;17386;43.846;25.950;2023-04-01T15:01:50;99762.09;;;16.37;92.60
20630;BME280;17386;43.846;25.950;2023-04-01T15:08:10;99765.28;;;16.19;94.26
20630;BME280;17386;43.846;25.950;2023-04-01T15:10:44;99766.72;;;16.11;94.20
20630;BME280;17386;43.846;25.950;2023-04-01T15:16:14;99767.84;;;15.96;95.38
20630;BME280;17386;43.846;25.950;2023-04-01T15:19:04;99776.34;;;15.90;96.61
20630;BME280;17386;43.846;25.950;2023-04-01T15:29:38;99792.50;;;15.65;98.27
20630;BME280;17386;43.846;25.950;2023-04-01T15:32:27;99783.25;;;15.69;99.01
20630;BME280;17386;43.846;25.950;2023-04-01T15:35:01;99795.91;;;15.67;99.30
20630;BME280;17386;43.846;25.950;2023-04-01T15:40:35;99803.19;;;15.65;98.57
20630;BME280;17386;43.846;25.950;2023-04-01T15:43:49;99798.97;;;15.60;98.32
20630;BME280;17386;43.846;25.950;2023-04-01T16:13:30;99818.03;;;14.92;100.00
20630;BME280;17386;43.846;25.950;2023-04-01T16:21:32;99832.66;;;14.87;100.00
20630;BME280;17386;43.846;25.950;2023-04-01T16:26:53;99844.28;;;14.73;100.00
20630;BME280;17386;43.846;25.950;2023-04-01T16:29:28;99850.81;;;14.69;100.00
20630;BME280;17386;43.846;25.950;2023-04-01T16:34:48;99839.91;;;14.45;100.00
20630;BME280;17386;43.846;25.950;2023-04-01T16:37:27;99841.16;;;14.39;100.00
20630;BME280;17386;43.846;25.950;2023-04-01T16:45:32;99824.06;;;14.15;100.00
20630;BME280;17386;43.846;25.950;2023-04-01T16:48:27;99814.91;;;14.05;100.00
20630;BME280;17386;43.846;25.950;2023-04-01T16:51:03;99824.03;;;13.88;100.00
20630;BME280;17386;43.846;25.950;2023-04-01T16:54:05;99833.84;;;13.87;100.00
20630;BME280;17386;43.846;25.950;2023-04-01T16:56:43;99818.22;;;13.81;100.00
20630;BME280;17386;43.846;25.950;2023-04-01T16:59:15;99820.88;;;13.81;100.00
20630;BME280;17386;43.846;25.950;2023-04-01T17:06:53;99817.19;;;13.69;100.00
20630;BME280;17386;43.846;25.950;2023-04-01T17:13:03;99830.72;;;13.66;100.00
20630;BME280;17386;43.846;25.950;2023-04-01T17:20:46;99816.34;;;13.55;100.00
20630;BME280;17386;43.846;25.950;2023-04-01T17:23:27;99815.66;;;13.51;100.00
20630;BME280;17386;43.846;25.950;2023-04-01T17:29:15;99818.06;;;13.41;100.00
20630;BME280;17386;43.846;25.950;2023-04-01T17:32:23;99813.56;;;13.42;100.00
20630;BME280;17386;43.846;25.950;2023-04-01T17:40:38;99819.19;;;13.37;100.00
20630;BME280;17386;43.846;25.950;2023-04-01T17:46:34;99825.84;;;13.30;100.00
20630;BME280;17386;43.846;25.950;2023-04-01T17:52:17;99820.81;;;13.26;100.00
20630;BME280;17386;43.846;25.950;2023-04-01T17:55:31;99819.09;;;13.25;100.00
20630;BME280;17386;43.846;25.950;2023-04-01T18:06:34;99837.84;;;13.23;100.00
20630;BME280;17386;43.846;25.950;2023-04-01T18:20:37;99827.38;;;13.20;100.00
20630;BME280;17386;43.846;25.950;2023-04-01T18:23:39;99832.50;;;13.23;100.00
20630;BME280;17386;43.846;25.950;2023-04-01T18:26:33;99842.16;;;13.26;100.00
20630;BME280;17386;43.846;25.950;2023-04-01T18:31:42;99833.72;;;13.18;100.00
20630;BME280;17386;43.846;25.950;2023-04-01T18:37:18;99859.91;;;13.11;100.00
20630;BME280;17386;43.846;25.950;2023-04-01T18:39:51;99859.97;;;13.09;100.00
20630;BME280;17386;43.846;25.950;2023-04-01T18:47:43;99880.59;;;12.92;100.00
20630;BME280;17386;43.846;25.950;2023-04-01T18:53:08;99880.63;;;12.76;100.00
20630;BME280;17386;43.846;25.950;2023-04-01T18:55:47;99887.75;;;12.75;100.00
20630;BME280;17386;43.846;25.950;2023-04-01T18:58:22;99890.38;;;12.77;100.00
20630;BME280;17386;43.846;25.950;2023-04-01T19:01:48;99905.78;;;12.56;100.00
20630;BME280;17386;43.846;25.950;2023-04-01T19:06:27;99933.88;;;12.46;100.00
20630;BME280;17386;43.846;25.950;2023-04-01T19:09:10;99934.81;;;12.45;100.00
20630;BME280;17386;43.846;25.950;2023-04-01T19:14:44;99929.59;;;12.43;100.00
20630;BME280;17386;43.846;25.950;2023-04-01T19:17:30;99924.25;;;12.43;100.00
20630;BME280;17386;43.846;25.950;2023-04-01T19:23:34;99921.59;;;12.43;100.00
20630;BME280;17386;43.846;25.950;2023-04-01T19:26:11;99927.94;;;12.41;100.00
20630;BME280;17386;43.846;25.950;2023-04-01T19:36:56;99935.44;;;12.50;100.00
20630;BME280;17386;43.846;25.950;2023-04-01T19:39:47;99934.81;;;12.45;100.00
20630;BME280;17386;43.846;25.950;2023-04-01T19:42:43;99932.34;;;12.57;100.00
20630;BME280;17386;43.846;25.950;2023-04-01T19:50:54;99933.84;;;12.62;100.00
20630;BME280;17386;43.846;25.950;2023-04-01T19:56:06;99939.53;;;12.55;100.00
20630;BME280;17386;43.846;25.950;2023-04-01T20:04:55;99949.09;;;12.44;100.00
20630;BME280;17386;43.846;25.950;2023-04-01T20:07:27;99938.16;;;12.48;100.00
20630;BME280;17386;43.846;25.950;2023-04-01T20:10:43;99952.44;;;12.47;100.00
20630;BME280;17386;43.846;25.950;2023-04-01T20:13:18;99954.94;;;12.50;100.00
20630;BME280;17386;43.846;25.950;2023-04-01T20:15:58;99962.84;;;12.52;100.00
20630;BME280;17386;43.846;25.950;2023-04-01T20:18:32;99957.31;;;12.55;100.00
20630;BME280;17386;43.846;25.950;2023-04-01T20:21:30;99956.31;;;12.57;100.00
20630;BME280;17386;43.846;25.950;2023-04-01T20:26:36;99958.03;;;12.58;100.00
20630;BME280;17386;43.846;25.950;2023-04-01T20:29:11;99954.84;;;12.52;100.00
20630;BME280;17386;43.846;25.950;2023-04-01T20:31:44;99966.34;;;12.52;100.00
20630;BME280;17386;43.846;25.950;2023-04-01T20:34:46;99970.91;;;12.50;100.00
20630;BME280;17386;43.846;25.950;2023-04-01T20:40:20;99971.66;;;12.21;100.00
20630;BME280;17386;43.846;25.950;2023-04-01T20:45:55;99991.94;;;11.90;100.00
20630;BME280;17386;43.846;25.950;2023-04-01T20:51:07;99982.16;;;11.91;100.00
20630;BME280;17386;43.846;25.950;2023-04-01T20:56:37;99994.78;;;11.87;100.00
20630;BME280;17386;43.846;25.950;2023-04-01T21:21:43;100030.84;;;11.75;100.00
20630;BME280;17386;43.846;25.950;2023-04-01T21:27:09;100017.84;;;11.69;100.00
20630;BME280;17386;43.846;25.950;2023-04-01T21:35:30;100029.84;;;11.61;100.00
20630;BME280;17386;43.846;25.950;2023-04-01T21:41:02;100029.41;;;11.51;100.00